sensor_id;sensor_type;location;lat;lon;timestamp;P1;durP1;ratioP1;P2;durP2;ratioP2
10114;SDS011;5097;43.260;27.812;2023-05-20T00:02:39;8.90;;;8.00;;
10114;SDS011;5097;43.260;27.812;2023-05-20T00:05:23;7.43;;;6.70;;
10114;SDS011;5097;43.260;27.812;2023-05-20T00:08:07;11.07;;;8.27;;
10114;SDS011;5097;43.260;27.812;2023-05-20T00:10:53;8.33;;;7.63;;
10114;SDS011;5097;43.260;27.812;2023-05-20T00:13:37;8.70;;;7.90;;
10114;SDS011;5097;43.260;27.812;2023-05-20T00:16:21;8.85;;;7.88;;
10114;SDS011;5097;43.260;27.812;2023-05-20T00:19:05;8.30;;;7.47;;
10114;SDS011;5097;43.260;27.812;2023-05-20T00:21:49;8.38;;;7.50;;
10114;SDS011;5097;43.260;27.812;2023-05-20T00:24:33;7.90;;;7.13;;
10114;SDS011;5097;43.260;27.812;2023-05-20T00:27:18;10.03;;;7.73;;
10114;SDS011;5097;43.260;27.812;2023-05-20T00:30:03;10.07;;;8.00;;
10114;SDS011;5097;43.260;27.812;2023-05-20T00:32:49;8.80;;;7.43;;
10114;SDS011;5097;43.260;27.812;2023-05-20T00:35:33;8.37;;;7.50;;
10114;SDS011;5097;43.260;27.812;2023-05-20T00:38:18;11.40;;;8.20;;
10114;SDS011;5097;43.260;27.812;2023-05-20T00:41:02;8.80;;;7.97;;
10114;SDS011;5097;43.260;27.812;2023-05-20T00:43:47;9.50;;;8.23;;
10114;SDS011;5097;43.260;27.812;2023-05-20T00:46:35;10.23;;;9.23;;
10114;SDS011;5097;43.260;27.812;2023-05-20T00:49:19;17.07;;;11.37;;
10114;SDS011;5097;43.260;27.812;2023-05-20T00:52:05;20.30;;;14.87;;
10114;SDS011;5097;43.260;27.812;2023-05-20T00:54:50;16.40;;;13.10;;
10114;SDS011;5097;43.260;27.812;2023-05-20T00:57:35;11.23;;;9.50;;
10114;SDS011;5097;43.260;27.812;2023-05-20T01:00:20;10.07;;;7.67;;
10114;SDS011;5097;43.260;27.812;2023-05-20T01:03:04;8.77;;;7.67;;
10114;SDS011;5097;43.260;27.812;2023-05-20T01:05:49;8.83;;;7.47;;
10114;SDS011;5097;43.260;27.812;2023-05-20T01:08:33;8.83;;;8.00;;
10114;SDS011;5097;43.260;27.812;2023-05-20T01:11:18;10.73;;;8.00;;
10114;SDS011;5097;43.260;27.812;2023-05-20T01:14:07;8.90;;;8.00;;
10114;SDS011;5097;43.260;27.812;2023-05-20T01:16:56;9.93;;;7.82;;
10114;SDS011;5097;43.260;27.812;2023-05-20T01:19:50;10.43;;;9.35;;
10114;SDS011;5097;43.260;27.812;2023-05-20T01:22:37;9.60;;;8.70;;
10114;SDS011;5097;43.260;27.812;2023-05-20T01:25:23;9.83;;;9.03;;
10114;SDS011;5097;43.260;27.812;2023-05-20T01:28:07;11.95;;;8.77;;
10114;SDS011;5097;43.260;27.812;2023-05-20T01:30:53;10.20;;;8.83;;
10114;SDS011;5097;43.260;27.812;2023-05-20T01:33:39;9.13;;;8.17;;
10114;SDS011;5097;43.260;27.812;2023-05-20T01:36:24;9.07;;;8.17;;
10114;SDS011;5097;43.260;27.812;2023-05-20T01:39:10;10.30;;;8.60;;
10114;SDS011;5097;43.260;27.812;2023-05-20T01:41:55;9.13;;;8.13;;
10114;SDS011;5097;43.260;27.812;2023-05-20T01:44:40;9.07;;;8.27;;
10114;SDS011;5097;43.260;27.812;2023-05-20T01:47:24;8.33;;;7.27;;
10114;SDS011;5097;43.260;27.812;2023-05-20T01:50:09;9.47;;;7.90;;
10114;SDS011;5097;43.260;27.812;2023-05-20T01:52:53;8.53;;;7.73;;
10114;SDS011;5097;43.260;27.812;2023-05-20T01:55:38;10.30;;;8.13;;
10114;SDS011;5097;43.260;27.812;2023-05-20T01:58:23;8.80;;;7.90;;
10114;SDS011;5097;43.260;27.812;2023-05-20T02:01:07;10.10;;;7.77;;
10114;SDS011;5097;43.260;27.812;2023-05-20T02:03:51;8.50;;;7.70;;
10114;SDS011;5097;43.260;27.812;2023-05-20T02:06:35;11.30;;;8.37;;
10114;SDS011;5097;43.260;27.812;2023-05-20T02:09:19;8.33;;;7.53;;
10114;SDS011;5097;43.260;27.812;2023-05-20T02:12:04;8.60;;;7.70;;
10114;SDS011;5097;43.260;27.812;2023-05-20T02:14:50;8.43;;;7.53;;
10114;SDS011;5097;43.260;27.812;2023-05-20T02:17:34;9.60;;;8.63;;
10114;SDS011;5097;43.260;27.812;2023-05-20T02:20:39;10.10;;;7.77;;
10114;SDS011;5097;43.260;27.812;2023-05-20T02:23:24;10.67;;;8.33;;
10114;SDS011;5097;43.260;27.812;2023-05-20T02:26:07;10.63;;;9.07;;
10114;SDS011;5097;43.260;27.812;2023-05-20T02:28:53;8.87;;;8.07;;
10114;SDS011;5097;43.260;27.812;2023-05-20T02:31:37;9.43;;;8.43;;
10114;SDS011;5097;43.260;27.812;2023-05-20T02:34:21;9.50;;;8.50;;
10114;SDS011;5097;43.260;27.812;2023-05-20T02:37:05;9.20;;;8.30;;
10114;SDS011;5097;43.260;27.812;2023-05-20T02:39:49;9.80;;;8.90;;
10114;SDS011;5097;43.260;27.812;2023-05-20T02:42:33;9.47;;;8.57;;
10114;SDS011;5097;43.260;27.812;2023-05-20T02:45:18;10.90;;;8.77;;
10114;SDS011;5097;43.260;27.812;2023-05-20T02:48:02;12.10;;;8.80;;
10114;SDS011;5097;43.260;27.812;2023-05-20T02:50:47;10.97;;;9.90;;
10114;SDS011;5097;43.260;27.812;2023-05-20T02:53:31;10.30;;;8.97;;
10114;SDS011;5097;43.260;27.812;2023-05-20T02:56:15;13.77;;;10.10;;
10114;SDS011;5097;43.260;27.812;2023-05-20T02:59:02;10.40;;;9.37;;
10114;SDS011;5097;43.260;27.812;2023-05-20T03:01:50;9.53;;;8.57;;
10114;SDS011;5097;43.260;27.812;2023-05-20T03:04:34;11.13;;;9.57;;
10114;SDS011;5097;43.260;27.812;2023-05-20T03:07:20;9.30;;;8.43;;
10114;SDS011;5097;43.260;27.812;2023-05-20T03:10:04;10.50;;;9.03;;
10114;SDS011;5097;43.260;27.812;2023-05-20T03:12:49;9.97;;;8.97;;
10114;SDS011;5097;43.260;27.812;2023-05-20T03:15:33;9.43;;;8.50;;
10114;SDS011;5097;43.260;27.812;2023-05-20T03:18:19;10.27;;;8.57;;
10114;SDS011;5097;43.260;27.812;2023-05-20T03:21:03;11.13;;;8.57;;
10114;SDS011;5097;43.260;27.812;2023-05-20T03:23:47;9.00;;;8.00;;
10114;SDS011;5097;43.260;27.812;2023-05-20T03:26:33;8.77;;;7.97;;
10114;SDS011;5097;43.260;27.812;2023-05-20T03:29:19;10.27;;;8.00;;
10114;SDS011;5097;43.260;27.812;2023-05-20T03:32:03;9.07;;;7.78;;
10114;SDS011;5097;43.260;27.812;2023-05-20T03:34:53;10.65;;;8.18;;
10114;SDS011;5097;43.260;27.812;2023-05-20T03:37:39;9.02;;;7.60;;
10114;SDS011;5097;43.260;27.812;2023-05-20T03:40:23;8.17;;;7.37;;
10114;SDS011;5097;43.260;27.812;2023-05-20T03:43:07;8.93;;;7.30;;
10114;SDS011;5097;43.260;27.812;2023-05-20T03:45:51;7.38;;;6.68;;
10114;SDS011;5097;43.260;27.812;2023-05-20T03:48:36;9.85;;;7.65;;
10114;SDS011;5097;43.260;27.812;2023-05-20T03:51:22;8.18;;;7.38;;
10114;SDS011;5097;43.260;27.812;2023-05-20T03:54:09;8.23;;;7.43;;
10114;SDS011;5097;43.260;27.812;2023-05-20T03:56:53;8.20;;;7.43;;
10114;SDS011;5097;43.260;27.812;2023-05-20T03:59:37;9.48;;;7.10;;
10114;SDS011;5097;43.260;27.812;2023-05-20T04:02:22;7.65;;;6.60;;
10114;SDS011;5097;43.260;27.812;2023-05-20T04:05:06;7.40;;;6.55;;
10114;SDS011;5097;43.260;27.812;2023-05-20T04:07:54;8.27;;;6.80;;
10114;SDS011;5097;43.260;27.812;2023-05-20T04:10:39;7.68;;;6.90;;
10114;SDS011;5097;43.260;27.812;2023-05-20T04:13:26;10.32;;;7.80;;
10114;SDS011;5097;43.260;27.812;2023-05-20T04:16:10;8.73;;;7.30;;
10114;SDS011;5097;43.260;27.812;2023-05-20T04:18:54;10.15;;;7.63;;
10114;SDS011;5097;43.260;27.812;2023-05-20T04:21:41;7.82;;;7.05;;
10114;SDS011;5097;43.260;27.812;2023-05-20T04:24:27;7.90;;;7.10;;
10114;SDS011;5097;43.260;27.812;2023-05-20T04:27:11;9.68;;;7.88;;
10114;SDS011;5097;43.260;27.812;2023-05-20T04:29:55;7.68;;;6.95;;
10114;SDS011;5097;43.260;27.812;2023-05-20T04:32:40;9.07;;;7.05;;
10114;SDS011;5097;43.260;27.812;2023-05-20T04:35:25;7.60;;;6.80;;
10114;SDS011;5097;43.260;27.812;2023-05-20T04:38:12;8.75;;;7.95;;
10114;SDS011;5097;43.260;27.812;2023-05-20T04:40:58;11.85;;;8.25;;
10114;SDS011;5097;43.260;27.812;2023-05-20T04:43:42;10.65;;;7.40;;
10114;SDS011;5097;43.260;27.812;2023-05-20T04:46:27;10.17;;;7.83;;
10114;SDS011;5097;43.260;27.812;2023-05-20T04:49:12;10.47;;;7.87;;
10114;SDS011;5097;43.260;27.812;2023-05-20T04:51:56;8.70;;;7.80;;
10114;SDS011;5097;43.260;27.812;2023-05-20T04:54:40;9.43;;;8.20;;
10114;SDS011;5097;43.260;27.812;2023-05-20T04:57:25;10.03;;;8.40;;
10114;SDS011;5097;43.260;27.812;2023-05-20T05:00:10;9.90;;;8.23;;
10114;SDS011;5097;43.260;27.812;2023-05-20T05:02:55;9.73;;;8.73;;
10114;SDS011;5097;43.260;27.812;2023-05-20T05:05:39;10.33;;;9.27;;
10114;SDS011;5097;43.260;27.812;2023-05-20T05:08:23;10.10;;;9.10;;
10114;SDS011;5097;43.260;27.812;2023-05-20T05:11:08;11.73;;;9.17;;
10114;SDS011;5097;43.260;27.812;2023-05-20T05:13:53;12.83;;;9.80;;
10114;SDS011;5097;43.260;27.812;2023-05-20T05:16:42;11.40;;;9.60;;
10114;SDS011;5097;43.260;27.812;2023-05-20T05:19:26;9.90;;;8.90;;
10114;SDS011;5097;43.260;27.812;2023-05-20T05:22:10;10.97;;;9.50;;
10114;SDS011;5097;43.260;27.812;2023-05-20T05:24:54;11.50;;;9.77;;
10114;SDS011;5097;43.260;27.812;2023-05-20T05:27:40;10.67;;;9.57;;
10114;SDS011;5097;43.260;27.812;2023-05-20T05:30:25;10.27;;;9.23;;
10114;SDS011;5097;43.260;27.812;2023-05-20T05:33:10;11.37;;;9.57;;
10114;SDS011;5097;43.260;27.812;2023-05-20T05:35:55;10.33;;;9.37;;
10114;SDS011;5097;43.260;27.812;2023-05-20T05:38:41;10.70;;;9.27;;
10114;SDS011;5097;43.260;27.812;2023-05-20T05:41:25;9.83;;;8.83;;
10114;SDS011;5097;43.260;27.812;2023-05-20T05:44:09;12.07;;;9.70;;
10114;SDS011;5097;43.260;27.812;2023-05-20T05:46:55;10.40;;;9.30;;
10114;SDS011;5097;43.260;27.812;2023-05-20T05:49:39;11.53;;;10.07;;
10114;SDS011;5097;43.260;27.812;2023-05-20T05:52:23;9.55;;;8.65;;
10114;SDS011;5097;43.260;27.812;2023-05-20T05:55:08;9.23;;;8.20;;
10114;SDS011;5097;43.260;27.812;2023-05-20T05:57:53;8.80;;;7.93;;
10114;SDS011;5097;43.260;27.812;2023-05-20T06:00:37;9.10;;;8.20;;
10114;SDS011;5097;43.260;27.812;2023-05-20T06:03:23;9.85;;;7.80;;
10114;SDS011;5097;43.260;27.812;2023-05-20T06:06:07;10.80;;;7.43;;
10114;SDS011;5097;43.260;27.812;2023-05-20T06:08:51;7.13;;;6.43;;
10114;SDS011;5097;43.260;27.812;2023-05-20T06:11:35;7.68;;;6.75;;
10114;SDS011;5097;43.260;27.812;2023-05-20T06:14:19;9.17;;;7.30;;
10114;SDS011;5097;43.260;27.812;2023-05-20T06:17:03;10.32;;;6.47;;
10114;SDS011;5097;43.260;27.812;2023-05-20T06:19:49;5.80;;;5.30;;
10114;SDS011;5097;43.260;27.812;2023-05-20T06:22:34;10.43;;;6.53;;
10114;SDS011;5097;43.260;27.812;2023-05-20T06:25:17;8.17;;;7.37;;
10114;SDS011;5097;43.260;27.812;2023-05-20T06:28:02;6.90;;;6.30;;
10114;SDS011;5097;43.260;27.812;2023-05-20T06:30:49;8.38;;;6.30;;
10114;SDS011;5097;43.260;27.812;2023-05-20T06:33:34;6.63;;;6.03;;
10114;SDS011;5097;43.260;27.812;2023-05-20T06:36:26;7.80;;;5.45;;
10114;SDS011;5097;43.260;27.812;2023-05-20T06:39:12;6.03;;;5.53;;
10114;SDS011;5097;43.260;27.812;2023-05-20T06:41:58;6.28;;;5.68;;
10114;SDS011;5097;43.260;27.812;2023-05-20T06:44:43;5.88;;;5.28;;
10114;SDS011;5097;43.260;27.812;2023-05-20T06:47:34;6.00;;;5.40;;
10114;SDS011;5097;43.260;27.812;2023-05-20T06:50:19;6.32;;;5.32;;
10114;SDS011;5097;43.260;27.812;2023-05-20T06:53:04;7.03;;;5.65;;
10114;SDS011;5097;43.260;27.812;2023-05-20T06:55:48;5.82;;;5.32;;
10114;SDS011;5097;43.260;27.812;2023-05-20T06:58:32;8.63;;;5.60;;
10114;SDS011;5097;43.260;27.812;2023-05-20T07:01:16;6.15;;;5.35;;
10114;SDS011;5097;43.260;27.812;2023-05-20T07:04:01;5.60;;;5.10;;
10114;SDS011;5097;43.260;27.812;2023-05-20T07:06:45;6.03;;;5.30;;
10114;SDS011;5097;43.260;27.812;2023-05-20T07:09:31;5.90;;;5.28;;
10114;SDS011;5097;43.260;27.812;2023-05-20T07:12:15;5.95;;;5.40;;
10114;SDS011;5097;43.260;27.812;2023-05-20T07:14:59;5.78;;;4.90;;
10114;SDS011;5097;43.260;27.812;2023-05-20T07:17:46;7.57;;;5.47;;
10114;SDS011;5097;43.260;27.812;2023-05-20T07:20:30;6.07;;;5.30;;
10114;SDS011;5097;43.260;27.812;2023-05-20T07:23:19;9.15;;;5.18;;
10114;SDS011;5097;43.260;27.812;2023-05-20T07:26:08;6.43;;;5.75;;
10114;SDS011;5097;43.260;27.812;2023-05-20T07:28:52;6.55;;;5.95;;
10114;SDS011;5097;43.260;27.812;2023-05-20T07:31:37;5.95;;;5.45;;
10114;SDS011;5097;43.260;27.812;2023-05-20T07:34:21;7.88;;;5.80;;
10114;SDS011;5097;43.260;27.812;2023-05-20T07:37:05;6.38;;;5.78;;
10114;SDS011;5097;43.260;27.812;2023-05-20T07:39:51;11.73;;;7.22;;
10114;SDS011;5097;43.260;27.812;2023-05-20T07:42:37;6.78;;;6.10;;
10114;SDS011;5097;43.260;27.812;2023-05-20T07:45:21;7.88;;;6.95;;
10114;SDS011;5097;43.260;27.812;2023-05-20T07:48:05;11.05;;;7.45;;
10114;SDS011;5097;43.260;27.812;2023-05-20T07:50:50;7.97;;;7.22;;
10114;SDS011;5097;43.260;27.812;2023-05-20T07:53:34;7.78;;;7.00;;
10114;SDS011;5097;43.260;27.812;2023-05-20T07:56:19;7.53;;;6.85;;
10114;SDS011;5097;43.260;27.812;2023-05-20T07:59:05;10.00;;;7.53;;
10114;SDS011;5097;43.260;27.812;2023-05-20T08:01:55;8.43;;;7.55;;
10114;SDS011;5097;43.260;27.812;2023-05-20T08:04:39;10.32;;;7.65;;
10114;SDS011;5097;43.260;27.812;2023-05-20T08:07:23;10.90;;;8.20;;
10114;SDS011;5097;43.260;27.812;2023-05-20T08:10:09;9.10;;;8.27;;
10114;SDS011;5097;43.260;27.812;2023-05-20T08:12:54;9.45;;;8.50;;
10114;SDS011;5097;43.260;27.812;2023-05-20T08:15:39;11.57;;;8.82;;
10114;SDS011;5097;43.260;27.812;2023-05-20T08:18:24;10.07;;;9.18;;
10114;SDS011;5097;43.260;27.812;2023-05-20T08:21:09;10.73;;;9.63;;
10114;SDS011;5097;43.260;27.812;2023-05-20T08:23:53;10.50;;;9.57;;
10114;SDS011;5097;43.260;27.812;2023-05-20T08:26:38;10.07;;;9.15;;
10114;SDS011;5097;43.260;27.812;2023-05-20T08:29:22;10.23;;;9.23;;
10114;SDS011;5097;43.260;27.812;2023-05-20T08:32:08;10.77;;;9.68;;
10114;SDS011;5097;43.260;27.812;2023-05-20T08:34:53;11.20;;;10.02;;
10114;SDS011;5097;43.260;27.812;2023-05-20T08:37:38;11.85;;;10.65;;
10114;SDS011;5097;43.260;27.812;2023-05-20T08:40:23;11.00;;;10.00;;
10114;SDS011;5097;43.260;27.812;2023-05-20T08:43:07;13.60;;;10.75;;
10114;SDS011;5097;43.260;27.812;2023-05-20T08:45:52;11.77;;;10.68;;
10114;SDS011;5097;43.260;27.812;2023-05-20T08:48:41;11.70;;;10.50;;
10114;SDS011;5097;43.260;27.812;2023-05-20T08:51:26;11.65;;;10.55;;
10114;SDS011;5097;43.260;27.812;2023-05-20T08:54:10;12.57;;;11.38;;
10114;SDS011;5097;43.260;27.812;2023-05-20T08:56:56;12.50;;;10.80;;
10114;SDS011;5097;43.260;27.812;2023-05-20T08:59:41;12.55;;;11.35;;
10114;SDS011;5097;43.260;27.812;2023-05-20T09:02:26;12.02;;;10.93;;
10114;SDS011;5097;43.260;27.812;2023-05-20T09:05:11;17.42;;;11.43;;
10114;SDS011;5097;43.260;27.812;2023-05-20T09:08:03;15.88;;;10.88;;
10114;SDS011;5097;43.260;27.812;2023-05-20T09:10:50;12.05;;;10.93;;
10114;SDS011;5097;43.260;27.812;2023-05-20T09:13:34;15.70;;;11.90;;
10114;SDS011;5097;43.260;27.812;2023-05-20T09:16:18;12.00;;;10.80;;
10114;SDS011;5097;43.260;27.812;2023-05-20T09:19:04;11.65;;;10.45;;
10114;SDS011;5097;43.260;27.812;2023-05-20T09:21:51;11.73;;;10.65;;
10114;SDS011;5097;43.260;27.812;2023-05-20T09:24:36;11.52;;;10.27;;
10114;SDS011;5097;43.260;27.812;2023-05-20T09:27:20;12.05;;;10.80;;
10114;SDS011;5097;43.260;27.812;2023-05-20T09:30:05;10.95;;;9.85;;
10114;SDS011;5097;43.260;27.812;2023-05-20T09:32:53;9.68;;;8.40;;
10114;SDS011;5097;43.260;27.812;2023-05-20T09:35:37;11.38;;;10.27;;
10114;SDS011;5097;43.260;27.812;2023-05-20T09:38:23;13.00;;;9.70;;
10114;SDS011;5097;43.260;27.812;2023-05-20T09:41:08;10.82;;;9.68;;
10114;SDS011;5097;43.260;27.812;2023-05-20T09:43:54;10.57;;;9.48;;
10114;SDS011;5097;43.260;27.812;2023-05-20T09:46:38;10.27;;;9.25;;
10114;SDS011;5097;43.260;27.812;2023-05-20T09:49:23;10.30;;;9.50;;
10114;SDS011;5097;43.260;27.812;2023-05-20T09:52:09;11.05;;;9.95;;
10114;SDS011;5097;43.260;27.812;2023-05-20T09:54:56;10.40;;;8.88;;
10114;SDS011;5097;43.260;27.812;2023-05-20T09:57:41;9.10;;;8.30;;
10114;SDS011;5097;43.260;27.812;2023-05-20T10:00:25;11.20;;;10.05;;
10114;SDS011;5097;43.260;27.812;2023-05-20T10:03:09;10.15;;;8.82;;
10114;SDS011;5097;43.260;27.812;2023-05-20T10:05:56;10.82;;;8.57;;
10114;SDS011;5097;43.260;27.812;2023-05-20T10:08:57;10.48;;;8.88;;
10114;SDS011;5097;43.260;27.812;2023-05-20T10:12:01;12.50;;;8.60;;
10114;SDS011;5097;43.260;27.812;2023-05-20T10:14:54;14.98;;;9.32;;
10114;SDS011;5097;43.260;27.812;2023-05-20T10:17:49;10.15;;;7.30;;
10114;SDS011;5097;43.260;27.812;2023-05-20T10:20:43;8.55;;;7.68;;
10114;SDS011;5097;43.260;27.812;2023-05-20T10:23:29;9.65;;;8.40;;
10114;SDS011;5097;43.260;27.812;2023-05-20T10:26:13;8.52;;;7.50;;
10114;SDS011;5097;43.260;27.812;2023-05-20T10:28:59;7.82;;;6.25;;
10114;SDS011;5097;43.260;27.812;2023-05-20T10:31:43;9.30;;;6.22;;
10114;SDS011;5097;43.260;27.812;2023-05-20T10:34:27;8.57;;;5.57;;
10114;SDS011;5097;43.260;27.812;2023-05-20T10:37:19;7.72;;;6.40;;
10114;SDS011;5097;43.260;27.812;2023-05-20T10:40:06;8.75;;;5.22;;
10114;SDS011;5097;43.260;27.812;2023-05-20T10:42:52;6.82;;;4.60;;
10114;SDS011;5097;43.260;27.812;2023-05-20T10:45:47;7.75;;;4.40;;
10114;SDS011;5097;43.260;27.812;2023-05-20T10:48:32;10.68;;;4.53;;
10114;SDS011;5097;43.260;27.812;2023-05-20T10:51:16;8.80;;;4.50;;
10114;SDS011;5097;43.260;27.812;2023-05-20T10:54:01;8.75;;;5.03;;
10114;SDS011;5097;43.260;27.812;2023-05-20T10:56:50;6.60;;;4.97;;
10114;SDS011;5097;43.260;27.812;2023-05-20T10:59:35;6.97;;;4.82;;
10114;SDS011;5097;43.260;27.812;2023-05-20T11:02:20;6.38;;;4.65;;
10114;SDS011;5097;43.260;27.812;2023-05-20T11:05:10;8.82;;;5.35;;
10114;SDS011;5097;43.260;27.812;2023-05-20T11:07:59;7.00;;;6.07;;
10114;SDS011;5097;43.260;27.812;2023-05-20T11:10:52;6.43;;;5.68;;
10114;SDS011;5097;43.260;27.812;2023-05-20T11:13:38;9.60;;;6.72;;
10114;SDS011;5097;43.260;27.812;2023-05-20T11:16:22;4.72;;;4.32;;
10114;SDS011;5097;43.260;27.812;2023-05-20T11:19:08;9.30;;;4.70;;
10114;SDS011;5097;43.260;27.812;2023-05-20T11:21:57;6.15;;;4.10;;
10114;SDS011;5097;43.260;27.812;2023-05-20T11:24:42;6.32;;;4.22;;
10114;SDS011;5097;43.260;27.812;2023-05-20T11:27:26;5.50;;;3.80;;
10114;SDS011;5097;43.260;27.812;2023-05-20T11:30:10;7.07;;;4.38;;
10114;SDS011;5097;43.260;27.812;2023-05-20T11:32:58;7.75;;;4.80;;
10114;SDS011;5097;43.260;27.812;2023-05-20T11:35:45;4.28;;;3.88;;
10114;SDS011;5097;43.260;27.812;2023-05-20T11:38:30;6.10;;;3.60;;
10114;SDS011;5097;43.260;27.812;2023-05-20T11:41:14;6.13;;;3.95;;
10114;SDS011;5097;43.260;27.812;2023-05-20T11:43:58;4.55;;;3.70;;
10114;SDS011;5097;43.260;27.812;2023-05-20T11:46:44;11.25;;;3.80;;
10114;SDS011;5097;43.260;27.812;2023-05-20T11:49:29;7.28;;;3.80;;
10114;SDS011;5097;43.260;27.812;2023-05-20T11:52:14;9.30;;;3.75;;
10114;SDS011;5097;43.260;27.812;2023-05-20T11:54:58;6.60;;;3.65;;
10114;SDS011;5097;43.260;27.812;2023-05-20T11:57:44;4.80;;;3.60;;
10114;SDS011;5097;43.260;27.812;2023-05-20T12:00:28;6.60;;;3.97;;
10114;SDS011;5097;43.260;27.812;2023-05-20T12:03:31;5.72;;;3.83;;
10114;SDS011;5097;43.260;27.812;2023-05-20T12:06:15;7.57;;;4.10;;
10114;SDS011;5097;43.260;27.812;2023-05-20T12:09:01;5.38;;;3.60;;
10114;SDS011;5097;43.260;27.812;2023-05-20T12:11:48;4.60;;;3.15;;
10114;SDS011;5097;43.260;27.812;2023-05-20T12:14:32;4.10;;;3.25;;
10114;SDS011;5097;43.260;27.812;2023-05-20T12:17:16;8.40;;;3.45;;
10114;SDS011;5097;43.260;27.812;2023-05-20T12:20:00;7.30;;;4.07;;
10114;SDS011;5097;43.260;27.812;2023-05-20T12:22:47;6.78;;;3.80;;
10114;SDS011;5097;43.260;27.812;2023-05-20T12:25:33;7.47;;;3.80;;
10114;SDS011;5097;43.260;27.812;2023-05-20T12:28:17;9.27;;;3.65;;
10114;SDS011;5097;43.260;27.812;2023-05-20T12:31:01;7.53;;;3.55;;
10114;SDS011;5097;43.260;27.812;2023-05-20T12:33:45;6.18;;;3.65;;
10114;SDS011;5097;43.260;27.812;2023-05-20T12:36:30;5.50;;;4.35;;
10114;SDS011;5097;43.260;27.812;2023-05-20T12:39:15;7.82;;;4.40;;
10114;SDS011;5097;43.260;27.812;2023-05-20T12:42:01;9.50;;;4.25;;
10114;SDS011;5097;43.260;27.812;2023-05-20T12:44:45;4.57;;;3.67;;
10114;SDS011;5097;43.260;27.812;2023-05-20T12:47:29;5.90;;;4.15;;
10114;SDS011;5097;43.260;27.812;2023-05-20T12:50:14;9.27;;;4.20;;
10114;SDS011;5097;43.260;27.812;2023-05-20T12:52:58;5.78;;;4.03;;
10114;SDS011;5097;43.260;27.812;2023-05-20T12:55:42;6.53;;;3.97;;
10114;SDS011;5097;43.260;27.812;2023-05-20T12:58:27;4.40;;;3.67;;
10114;SDS011;5097;43.260;27.812;2023-05-20T13:01:11;6.93;;;4.10;;
10114;SDS011;5097;43.260;27.812;2023-05-20T13:03:55;6.28;;;3.88;;
10114;SDS011;5097;43.260;27.812;2023-05-20T13:06:39;7.13;;;4.80;;
10114;SDS011;5097;43.260;27.812;2023-05-20T13:09:24;5.82;;;3.83;;
10114;SDS011;5097;43.260;27.812;2023-05-20T13:12:08;5.68;;;3.90;;
10114;SDS011;5097;43.260;27.812;2023-05-20T13:14:54;6.28;;;4.22;;
10114;SDS011;5097;43.260;27.812;2023-05-20T13:17:38;7.07;;;3.60;;
10114;SDS011;5097;43.260;27.812;2023-05-20T13:20:23;5.70;;;4.40;;
10114;SDS011;5097;43.260;27.812;2023-05-20T13:23:07;8.70;;;5.72;;
10114;SDS011;5097;43.260;27.812;2023-05-20T13:25:51;7.10;;;4.95;;
10114;SDS011;5097;43.260;27.812;2023-05-20T13:28:35;6.03;;;4.13;;
10114;SDS011;5097;43.260;27.812;2023-05-20T13:31:20;6.07;;;3.25;;
10114;SDS011;5097;43.260;27.812;2023-05-20T13:34:05;4.65;;;4.25;;
10114;SDS011;5097;43.260;27.812;2023-05-20T13:36:49;6.90;;;4.35;;
10114;SDS011;5097;43.260;27.812;2023-05-20T13:39:33;13.82;;;4.45;;
10114;SDS011;5097;43.260;27.812;2023-05-20T13:42:17;7.10;;;4.60;;
10114;SDS011;5097;43.260;27.812;2023-05-20T13:45:01;5.10;;;4.15;;
10114;SDS011;5097;43.260;27.812;2023-05-20T13:47:48;7.82;;;3.80;;
10114;SDS011;5097;43.260;27.812;2023-05-20T13:50:32;5.82;;;3.85;;
10114;SDS011;5097;43.260;27.812;2023-05-20T13:53:16;8.98;;;4.60;;
10114;SDS011;5097;43.260;27.812;2023-05-20T13:56:00;6.30;;;4.65;;
10114;SDS011;5097;43.260;27.812;2023-05-20T13:58:45;6.60;;;4.13;;
10114;SDS011;5097;43.260;27.812;2023-05-20T14:01:29;5.30;;;3.92;;
10114;SDS011;5097;43.260;27.812;2023-05-20T14:04:15;11.02;;;4.35;;
10114;SDS011;5097;43.260;27.812;2023-05-20T14:06:59;4.45;;;3.50;;
10114;SDS011;5097;43.260;27.812;2023-05-20T14:09:43;7.47;;;4.32;;
10114;SDS011;5097;43.260;27.812;2023-05-20T14:12:27;8.88;;;5.43;;
10114;SDS011;5097;43.260;27.812;2023-05-20T14:15:11;9.75;;;4.82;;
10114;SDS011;5097;43.260;27.812;2023-05-20T14:17:55;6.88;;;4.55;;
10114;SDS011;5097;43.260;27.812;2023-05-20T14:20:41;6.65;;;4.55;;
10114;SDS011;5097;43.260;27.812;2023-05-20T14:23:25;11.50;;;5.53;;
10114;SDS011;5097;43.260;27.812;2023-05-20T14:26:10;9.07;;;5.53;;
10114;SDS011;5097;43.260;27.812;2023-05-20T14:28:54;8.75;;;5.30;;
10114;SDS011;5097;43.260;27.812;2023-05-20T14:31:38;13.70;;;4.95;;
10114;SDS011;5097;43.260;27.812;2023-05-20T14:34:22;8.98;;;4.78;;
10114;SDS011;5097;43.260;27.812;2023-05-20T14:37:08;9.57;;;5.90;;
10114;SDS011;5097;43.260;27.812;2023-05-20T14:39:53;10.73;;;5.22;;
10114;SDS011;5097;43.260;27.812;2023-05-20T14:42:37;13.07;;;4.40;;
10114;SDS011;5097;43.260;27.812;2023-05-20T14:45:22;11.70;;;5.10;;
10114;SDS011;5097;43.260;27.812;2023-05-20T14:48:06;6.45;;;4.80;;
10114;SDS011;5097;43.260;27.812;2023-05-20T14:50:50;7.28;;;4.90;;
10114;SDS011;5097;43.260;27.812;2023-05-20T14:53:35;7.55;;;4.18;;
10114;SDS011;5097;43.260;27.812;2023-05-20T14:56:19;8.23;;;4.78;;
10114;SDS011;5097;43.260;27.812;2023-05-20T14:59:03;6.32;;;5.55;;
10114;SDS011;5097;43.260;27.812;2023-05-20T15:01:48;6.60;;;4.40;;
10114;SDS011;5097;43.260;27.812;2023-05-20T15:04:32;9.82;;;6.07;;
10114;SDS011;5097;43.260;27.812;2023-05-20T15:07:17;7.28;;;4.10;;
10114;SDS011;5097;43.260;27.812;2023-05-20T15:10:02;8.25;;;5.65;;
10114;SDS011;5097;43.260;27.812;2023-05-20T15:12:47;11.70;;;5.57;;
10114;SDS011;5097;43.260;27.812;2023-05-20T15:15:32;7.97;;;5.28;;
10114;SDS011;5097;43.260;27.812;2023-05-20T15:18:16;8.35;;;4.70;;
10114;SDS011;5097;43.260;27.812;2023-05-20T15:21:00;8.70;;;4.13;;
10114;SDS011;5097;43.260;27.812;2023-05-20T15:23:44;7.18;;;4.68;;
10114;SDS011;5097;43.260;27.812;2023-05-20T15:26:30;8.25;;;4.40;;
10114;SDS011;5097;43.260;27.812;2023-05-20T15:29:14;8.23;;;4.68;;
10114;SDS011;5097;43.260;27.812;2023-05-20T15:31:58;6.95;;;5.40;;
10114;SDS011;5097;43.260;27.812;2023-05-20T15:34:42;9.55;;;5.20;;
10114;SDS011;5097;43.260;27.812;2023-05-20T15:37:26;5.47;;;4.60;;
10114;SDS011;5097;43.260;27.812;2023-05-20T15:40:10;5.43;;;4.13;;
10114;SDS011;5097;43.260;27.812;2023-05-20T15:42:56;10.15;;;4.68;;
10114;SDS011;5097;43.260;27.812;2023-05-20T15:45:41;5.88;;;4.05;;
10114;SDS011;5097;43.260;27.812;2023-05-20T15:48:26;7.25;;;4.10;;
10114;SDS011;5097;43.260;27.812;2023-05-20T15:51:10;6.22;;;4.55;;
10114;SDS011;5097;43.260;27.812;2023-05-20T15:53:55;5.38;;;4.15;;
10114;SDS011;5097;43.260;27.812;2023-05-20T15:56:39;11.95;;;4.28;;
10114;SDS011;5097;43.260;27.812;2023-05-20T15:59:25;6.15;;;3.67;;
10114;SDS011;5097;43.260;27.812;2023-05-20T16:02:09;9.02;;;5.13;;
10114;SDS011;5097;43.260;27.812;2023-05-20T16:04:53;6.00;;;4.82;;
10114;SDS011;5097;43.260;27.812;2023-05-20T16:07:37;8.48;;;4.97;;
10114;SDS011;5097;43.260;27.812;2023-05-20T16:10:21;9.82;;;4.43;;
10114;SDS011;5097;43.260;27.812;2023-05-20T16:13:12;6.63;;;4.78;;
10114;SDS011;5097;43.260;27.812;2023-05-20T16:15:57;7.95;;;3.75;;
10114;SDS011;5097;43.260;27.812;2023-05-20T16:18:42;8.93;;;3.95;;
10114;SDS011;5097;43.260;27.812;2023-05-20T16:21:26;6.00;;;3.63;;
10114;SDS011;5097;43.260;27.812;2023-05-20T16:24:10;7.90;;;3.45;;
10114;SDS011;5097;43.260;27.812;2023-05-20T16:26:54;7.43;;;3.78;;
10114;SDS011;5097;43.260;27.812;2023-05-20T16:29:38;5.53;;;4.05;;
10114;SDS011;5097;43.260;27.812;2023-05-20T16:32:23;7.35;;;3.83;;